Terminal Aerodrome Forecast
Issued by NWS

Home | Current Version | Previous Version | Text Only | Print | Product List | Glossary On
Versions: 1 2 3 4 5 6 7 8 9 10 11 12 13 14
000
FTUS41 KPBZ 172333
TAFMGW
TAF
KMGW 172333Z 1800/1824 20004KT P6SM OVC060
     FM180500 21003KT P6SM -DZ OVC040
     FM181200 22004KT P6SM -DZ OVC025
     FM181800 22008KT P6SM -DZ OVC010=

USA.gov is the U.S. government's official web portal to all federal, state and local government web resources and services.